Language: 


Des rapports , des résumés tant et plus, au choix de chacun....


Données Historiques de Météogheer
Journalier Rapport pour Janvier 24, 2018 Unitée:  Les deux    Impériale   Métrique
Suivant Jour »
Journalier Hebdomadaire Mensuel Annuel Sur mesure
  Max: Min: Moyenne:
Température: 58.8 °F /  14.9 °C 32 °F /  0.0 °C 53.6 °F /  12 °C
Point de rosée: 55.4 °F /  13.0 °C 44.6 °F /  7.0 °C 52 °F /  11.1 °C
Humidité: 98% 0% 88%
Vent: 32.7mph /  52.6km/h - 11.2mph /  18km/h
Rafales: 32.7mph /  52.6km/h - -
Vent- - SW
Pression: 30.1 in /  1018.2 hPa 29.7 in /  1007.0 hPa -
Pluie: 0.17 in /  4.3 mm    
Historical Graphs
 
 
Données tabulaires pour Janvier 24, 2018
Heure Température Point de rosée Pression Vent Vent Rafales Humidité Pluie Taux (Horaire) Conditions
00:02 53.2 °F /  11.8 °C 53.6 °F /  12.0 °C 30in /  1016.8hPa SSW 6.5mph /  10.5km/h 6.5mph /  10.5km/h 98% 0.02in /  0.5mm
00:07 53.4 °F /  11.9 °C 53.6 °F /  12.0 °C 30in /  1016.8hPa SSW 6.5mph /  10.5km/h 6.5mph /  10.5km/h 98% 0.04in /  1.0mm
00:17 53.4 °F /  11.9 °C 53.6 °F /  12.0 °C 30in /  1016.8hPa SSW 6.5mph /  10.5km/h 6.5mph /  10.5km/h 98% 0.04in /  1.0mm
00:22 53.4 °F /  11.9 °C 53.6 °F /  12.0 °C 30in /  1016.8hPa SW 8.5mph /  13.7km/h 8.5mph /  13.7km/h 98% 0.04in /  1.0mm
00:27 53.4 °F /  11.9 °C 53.6 °F /  12.0 °C 30in /  1016.8hPa SW 8.5mph /  13.7km/h 8.5mph /  13.7km/h 98% 0.04in /  1.0mm
00:32 53.4 °F /  11.9 °C 53.6 °F /  12.0 °C 30in /  1016.8hPa SW 8.5mph /  13.7km/h 8.5mph /  13.7km/h 98% 0.03in /  0.8mm
00:43 53.4 °F /  11.9 °C 53.6 °F /  12.0 °C 30in /  1016.8hPa SW 8.5mph /  13.7km/h 8.5mph /  13.7km/h 98% 0.03in /  0.8mm
00:48 53.4 °F /  11.9 °C 53.6 °F /  12.0 °C 30in /  1016.8hPa SW 8.5mph /  13.7km/h 8.5mph /  13.7km/h 98% 0.03in /  0.8mm
00:53 53.6 °F /  12.0 °C 53.6 °F /  12.0 °C 30in /  1016.8hPa SW 8.5mph /  13.7km/h 8.5mph /  13.7km/h 98% 0.01in /  0.3mm
00:58 53.6 °F /  12.0 °C 53.6 °F /  12.0 °C 30in /  1016.8hPa SW 8.5mph /  13.7km/h 8.5mph /  13.7km/h 98% 0.03in /  0.8mm
01:03 53.6 °F /  12.0 °C 53.6 °F /  12.0 °C 30in /  1016.8hPa SW 8.5mph /  13.7km/h 8.5mph /  13.7km/h 98% 0.03in /  0.8mm
01:08 53.6 °F /  12.0 °C 53.6 °F /  12.0 °C 30in /  1016.8hPa SW 8.5mph /  13.7km/h 8.5mph /  13.7km/h 98% 0.01in /  0.3mm
01:13 53.6 °F /  12.0 °C 53.6 °F /  12.0 °C 30in /  1016.8hPa SW 8.5mph /  13.7km/h 8.5mph /  13.7km/h 98% 0.01in /  0.3mm
01:18 53.6 °F /  12.0 °C 53.6 °F /  12.0 °C 30in /  1016.8hPa SW 8.5mph /  13.7km/h 8.5mph /  13.7km/h 98% 0.01in /  0.3mm
01:23 53.6 °F /  12.0 °C 53.6 °F /  12.0 °C 30in /  1016.8hPa SW 8.5mph /  13.7km/h 8.5mph /  13.7km/h 98% 0.01in /  0.3mm
01:28 53.6 °F /  12.0 °C 53.6 °F /  12.0 °C 30in /  1016.8hPa SW 8.5mph /  13.7km/h 8.5mph /  13.7km/h 98% 0.01in /  0.3mm
01:33 53.6 °F /  12.0 °C 53.6 °F /  12.0 °C 30in /  1016.1hPa SW 8.5mph /  13.7km/h 8.5mph /  13.7km/h 98% 0.01in /  0.3mm
01:38 53.6 °F /  12.0 °C 53.6 °F /  12.0 °C 30in /  1016.1hPa SW 8.5mph /  13.7km/h 8.5mph /  13.7km/h 98% 0.01in /  0.3mm
01:48 53.6 °F /  12.0 °C 53.6 °F /  12.0 °C 30in /  1016.1hPa SW 8.5mph /  13.7km/h 8.5mph /  13.7km/h 98% 0.01in /  0.3mm
01:53 53.6 °F /  12.0 °C 53.6 °F /  12.0 °C 30in /  1016.1hPa SW 8.5mph /  13.7km/h 8.5mph /  13.7km/h 98% 0.01in /  0.3mm
02:03 53.8 °F /  12.1 °C 53.6 °F /  12.0 °C 30in /  1016.8hPa SW 8.5mph /  13.7km/h 8.5mph /  13.7km/h 98% 0in /  0.0mm
02:08 53.8 °F /  12.1 °C 53.6 °F /  12.0 °C 30in /  1016.8hPa SW 8.5mph /  13.7km/h 8.5mph /  13.7km/h 98% 0in /  0.0mm
02:13 53.8 °F /  12.1 °C 53.6 °F /  12.0 °C 30in /  1016.8hPa SW 8.5mph /  13.7km/h 8.5mph /  13.7km/h 98% 0.01in /  0.3mm
02:18 53.6 °F /  12.0 °C 53.6 °F /  12.0 °C 30in /  1016.8hPa SW 8.5mph /  13.7km/h 8.5mph /  13.7km/h 98% 0.01in /  0.3mm
02:23 53.8 °F /  12.1 °C 53.6 °F /  12.0 °C 30in /  1016.8hPa SW 8.5mph /  13.7km/h 8.5mph /  13.7km/h 98% 0.01in /  0.3mm
02:33 53.6 °F /  12.0 °C 53.6 °F /  12.0 °C 30.1in /  1018.2hPa SW 8.5mph /  13.7km/h 8.5mph /  13.7km/h 98% 0.01in /  0.3mm
02:38 53.6 °F /  12.0 °C 53.6 °F /  12.0 °C 30.1in /  1018.2hPa SW 8.5mph /  13.7km/h 8.5mph /  13.7km/h 98% 0.01in /  0.3mm
02:43 53.6 °F /  12.0 °C 53.6 °F /  12.0 °C 30.1in /  1018.2hPa SW 8.5mph /  13.7km/h 8.5mph /  13.7km/h 98% 0.01in /  0.3mm
02:48 53.6 °F /  12.0 °C 53.6 °F /  12.0 °C 30in /  1016.8hPa SW 8.5mph /  13.7km/h 8.5mph /  13.7km/h 98% 0.01in /  0.3mm
02:53 53.6 °F /  12.0 °C 53.6 °F /  12.0 °C 30in /  1016.8hPa SW 8.5mph /  13.7km/h 8.5mph /  13.7km/h 98% 0.01in /  0.3mm
02:58 53.6 °F /  12.0 °C 53.6 °F /  12.0 °C 30in /  1016.8hPa SW 8.5mph /  13.7km/h 8.5mph /  13.7km/h 98% 0.01in /  0.3mm
03:03 53.6 °F /  12.0 °C 53.6 °F /  12.0 °C 30in /  1016.8hPa SW 8.5mph /  13.7km/h 8.5mph /  13.7km/h 98% 0.01in /  0.3mm
03:08 53.6 °F /  12.0 °C 53.6 °F /  12.0 °C 30in /  1016.8hPa SW 8.5mph /  13.7km/h 8.5mph /  13.7km/h 98% 0.01in /  0.3mm
03:13 53.6 °F /  12.0 °C 53.6 °F /  12.0 °C 30in /  1016.8hPa SW 8.5mph /  13.7km/h 8.5mph /  13.7km/h 98% 0in /  0.0mm
03:18 53.6 °F /  12.0 °C 53.6 °F /  12.0 °C 30in /  1016.8hPa SW 8.5mph /  13.7km/h 8.5mph /  13.7km/h 98% 0in /  0.0mm
03:23 53.6 °F /  12.0 °C 53.6 °F /  12.0 °C 30in /  1016.8hPa SW 8.5mph /  13.7km/h 8.5mph /  13.7km/h 98% 0in /  0.0mm
03:29 53.6 °F /  12.0 °C 53.6 °F /  12.0 °C 30in /  1016.1hPa SW 8.5mph /  13.7km/h 8.5mph /  13.7km/h 98% 0in /  0.0mm
03:34 53.6 °F /  12.0 °C 53.6 °F /  12.0 °C 30in /  1016.1hPa SW 8.5mph /  13.7km/h 8.5mph /  13.7km/h 98% 0in /  0.0mm
03:39 53.8 °F /  12.1 °C 53.6 °F /  12.0 °C 30in /  1016.1hPa SW 8.5mph /  13.7km/h 8.5mph /  13.7km/h 98% 0in /  0.0mm
03:44 53.6 °F /  12.0 °C 53.6 °F /  12.0 °C 30in /  1016.1hPa SW 8.5mph /  13.7km/h 8.5mph /  13.7km/h 98% 0in /  0.0mm
03:49 53.8 °F /  12.1 °C 53.6 °F /  12.0 °C 30in /  1016.1hPa SW 8.5mph /  13.7km/h 8.5mph /  13.7km/h 98% 0in /  0.0mm
03:54 53.8 °F /  12.1 °C 53.6 °F /  12.0 °C 30in /  1016.1hPa SW 8.5mph /  13.7km/h 8.5mph /  13.7km/h 98% 0in /  0.0mm
03:59 53.8 °F /  12.1 °C 53.6 °F /  12.0 °C 30in /  1016.1hPa SW 8.5mph /  13.7km/h 8.5mph /  13.7km/h 98% 0in /  0.0mm
04:04 53.8 °F /  12.1 °C 53.6 °F /  12.0 °C 30in /  1016.1hPa SW 8.5mph /  13.7km/h 8.5mph /  13.7km/h 98% 0in /  0.0mm
04:09 53.8 °F /  12.1 °C 53.6 °F /  12.0 °C 30in /  1016.1hPa SW 8.5mph /  13.7km/h 8.5mph /  13.7km/h 98% 0in /  0.0mm
04:14 54 °F /  12.2 °C 53.6 °F /  12.0 °C 30in /  1015.1hPa SW 8.5mph /  13.7km/h 8.5mph /  13.7km/h 98% 0in /  0.0mm
04:19 54 °F /  12.2 °C 53.6 °F /  12.0 °C 30in /  1015.1hPa SW 8.5mph /  13.7km/h 8.5mph /  13.7km/h 98% 0in /  0.0mm
04:24 54 °F /  12.2 °C 53.6 °F /  12.0 °C 30in /  1015.1hPa SW 8.5mph /  13.7km/h 8.5mph /  13.7km/h 98% 0in /  0.0mm
04:27 54 °F /  12.2 °C 53.6 °F /  12.0 °C 30in /  1015.1hPa SW 8.5mph /  13.7km/h 8.5mph /  13.7km/h 98% 0in /  0.0mm
04:32 54 °F /  12.2 °C 53.6 °F /  12.0 °C 30in /  1015.1hPa SSW 8.7mph /  14.0km/h 8.7mph /  14.0km/h 98% 0in /  0.0mm
04:37 54 °F /  12.2 °C 53.6 °F /  12.0 °C 30in /  1015.1hPa SSW 9.8mph /  15.8km/h 10.3mph /  16.6km/h 98% 0in /  0.0mm
04:47 54.1 °F /  12.3 °C 55.4 °F /  13.0 °C 30in /  1015.1hPa SSW 8.5mph /  13.7km/h 10.1mph /  16.3km/h 98% 0in /  0.0mm
04:52 54.1 °F /  12.3 °C 55.4 °F /  13.0 °C 30in /  1015.1hPa SSW 10.5mph /  16.9km/h 10.5mph /  16.9km/h 98% 0in /  0.0mm
04:57 54.1 °F /  12.3 °C 55.4 °F /  13.0 °C 30in /  1015.1hPa SW 9.2mph /  14.8km/h 10.5mph /  16.9km/h 98% 0in /  0.0mm
05:02 54.3 °F /  12.4 °C 55.4 °F /  13.0 °C 30in /  1015.1hPa SW 9.2mph /  14.8km/h 10.1mph /  16.3km/h 98% 0in /  0.0mm
05:07 54.1 °F /  12.3 °C 55.4 °F /  13.0 °C 30in /  1015.1hPa SW 5.6mph /  9.0km/h 10.7mph /  17.2km/h 98% 0in /  0.0mm
05:12 54.1 °F /  12.3 °C 55.4 °F /  13.0 °C 30in /  1015.1hPa South 8.1mph /  13.0km/h 13.4mph /  21.6km/h 98% 0in /  0.0mm
05:17 54.3 °F /  12.4 °C 55.4 °F /  13.0 °C 29.9in /  1014.1hPa SSW 9.8mph /  15.8km/h 13.4mph /  21.6km/h 98% 0in /  0.0mm
05:22 54.3 °F /  12.4 °C 55.4 °F /  13.0 °C 29.9in /  1014.1hPa SSW 7.2mph /  11.6km/h 11mph /  17.7km/h 98% 0in /  0.0mm
05:27 54.3 °F /  12.4 °C 55.4 °F /  13.0 °C 29.9in /  1014.1hPa South 9.8mph /  15.8km/h 12.3mph /  19.8km/h 98% 0in /  0.0mm
05:32 54.3 °F /  12.4 °C 55.4 °F /  13.0 °C 30in /  1015.1hPa SW 6.5mph /  10.5km/h 12.3mph /  19.8km/h 98% 0in /  0.0mm
05:37 54.3 °F /  12.4 °C 55.4 °F /  13.0 °C 30in /  1015.1hPa SSW 8.7mph /  14.0km/h 8.7mph /  14.0km/h 98% 0in /  0.0mm
05:42 54.3 °F /  12.4 °C 55.4 °F /  13.0 °C 30in /  1015.1hPa WSW 7.8mph /  12.6km/h 9.6mph /  15.4km/h 98% 0in /  0.0mm
05:47 54.3 °F /  12.4 °C 55.4 °F /  13.0 °C 30in /  1015.1hPa SW 7.4mph /  11.9km/h 12.8mph /  20.6km/h 98% 0in /  0.0mm
05:52 54.5 °F /  12.5 °C 55.4 °F /  13.0 °C 30in /  1015.1hPa South 12.8mph /  20.6km/h 12.8mph /  20.6km/h 98% 0in /  0.0mm
05:57 54.3 °F /  12.4 °C 55.4 °F /  13.0 °C 30in /  1015.1hPa SSW 8.7mph /  14.0km/h 12.8mph /  20.6km/h 98% 0in /  0.0mm
06:13 54.3 °F /  12.4 °C 55.4 °F /  13.0 °C 30in /  1015.1hPa SSW 5.6mph /  9.0km/h 9.6mph /  15.4km/h 98% 0in /  0.0mm
06:18 54.3 °F /  12.4 °C 55.4 °F /  13.0 °C 29.9in /  1014.1hPa SSW 9.8mph /  15.8km/h 9.8mph /  15.8km/h 98% 0in /  0.0mm
06:23 54.3 °F /  12.4 °C 55.4 °F /  13.0 °C 29.9in /  1014.1hPa SW 9.2mph /  14.8km/h 9.8mph /  15.8km/h 98% 0in /  0.0mm
06:28 54.3 °F /  12.4 °C 55.4 °F /  13.0 °C 29.9in /  1014.1hPa WSW 6mph /  9.7km/h 12.5mph /  20.1km/h 98% 0in /  0.0mm
06:33 54.3 °F /  12.4 °C 55.4 °F /  13.0 °C 29.9in /  1014.1hPa South 8.5mph /  13.7km/h 12.5mph /  20.1km/h 98% 0in /  0.0mm
06:43 54.3 °F /  12.4 °C 55.4 °F /  13.0 °C 29.9in /  1014.1hPa SSW 9.8mph /  15.8km/h 11.2mph /  18.0km/h 98% 0in /  0.0mm
06:48 54.5 °F /  12.5 °C 55.4 °F /  13.0 °C 29.9in /  1014.1hPa SW 6.5mph /  10.5km/h 14.1mph /  22.7km/h 98% 0in /  0.0mm
06:53 54.5 °F /  12.5 °C 55.4 °F /  13.0 °C 29.9in /  1014.1hPa SSW 5.6mph /  9.0km/h 14.1mph /  22.7km/h 98% 0in /  0.0mm
06:58 54.5 °F /  12.5 °C 55.4 °F /  13.0 °C 29.9in /  1014.1hPa SW 10.5mph /  16.9km/h 11mph /  17.7km/h 98% 0in /  0.0mm
07:03 54.5 °F /  12.5 °C 55.4 °F /  13.0 °C 29.9in /  1014.1hPa SSW 12.3mph /  19.8km/h 12.3mph /  19.8km/h 98% 0in /  0.0mm
07:08 54.5 °F /  12.5 °C 55.4 °F /  13.0 °C 29.9in /  1014.1hPa SW 10.3mph /  16.6km/h 12.8mph /  20.6km/h 98% 0in /  0.0mm
07:13 54.5 °F /  12.5 °C 55.4 °F /  13.0 °C 29.9in /  1014.1hPa WSW 12.5mph /  20.1km/h 13.4mph /  21.6km/h 98% 0in /  0.0mm
07:23 54.7 °F /  12.6 °C 55.4 °F /  13.0 °C 29.9in /  1014.1hPa SSW 9.8mph /  15.8km/h 12.5mph /  20.1km/h 98% 0in /  0.0mm
07:28 54.7 °F /  12.6 °C 55.4 °F /  13.0 °C 29.9in /  1014.1hPa SSW 9.8mph /  15.8km/h 9.8mph /  15.8km/h 98% 0in /  0.0mm
07:38 54.7 °F /  12.6 °C 55.4 °F /  13.0 °C 30in /  1015.1hPa SSW 9.8mph /  15.8km/h 9.8mph /  15.8km/h 98% 0in /  0.0mm
07:48 54.7 °F /  12.6 °C 55.4 °F /  13.0 °C 29.9in /  1014.1hPa SSW 9.8mph /  15.8km/h 9.8mph /  15.8km/h 98% 0in /  0.0mm
07:53 54.7 °F /  12.6 °C 55.4 °F /  13.0 °C 29.9in /  1014.1hPa SSW 9.8mph /  15.8km/h 9.8mph /  15.8km/h 98% 0in /  0.0mm
07:58 54.7 °F /  12.6 °C 55.4 °F /  13.0 °C 29.9in /  1014.1hPa SSW 9.8mph /  15.8km/h 9.8mph /  15.8km/h 98% 0in /  0.0mm
08:03 54.9 °F /  12.7 °C 55.4 °F /  13.0 °C 29.9in /  1014.1hPa SSW 9.8mph /  15.8km/h 9.8mph /  15.8km/h 98% 0in /  0.0mm
08:08 54.9 °F /  12.7 °C 55.4 °F /  13.0 °C 29.9in /  1014.1hPa SSW 9.8mph /  15.8km/h 9.8mph /  15.8km/h 98% 0in /  0.0mm
08:13 54.7 °F /  12.6 °C 55.4 °F /  13.0 °C 29.9in /  1014.1hPa SSW 9.8mph /  15.8km/h 9.8mph /  15.8km/h 98% 0in /  0.0mm
08:18 54.7 °F /  12.6 °C 55.4 °F /  13.0 °C 29.9in /  1014.1hPa SSW 9.8mph /  15.8km/h 9.8mph /  15.8km/h 98% 0in /  0.0mm
08:23 54.7 °F /  12.6 °C 55.4 °F /  13.0 °C 29.9in /  1014.1hPa SSW 9.8mph /  15.8km/h 9.8mph /  15.8km/h 98% 0in /  0.0mm
08:28 54.9 °F /  12.7 °C 55.4 °F /  13.0 °C 29.9in /  1013.1hPa SSW 9.8mph /  15.8km/h 9.8mph /  15.8km/h 98% 0in /  0.0mm
08:33 54.7 °F /  12.6 °C 55.4 °F /  13.0 °C 29.9in /  1013.1hPa SSW 9.8mph /  15.8km/h 9.8mph /  15.8km/h 98% 0in /  0.0mm
08:38 54.9 °F /  12.7 °C 55.4 °F /  13.0 °C 29.9in /  1013.1hPa SSW 9.8mph /  15.8km/h 9.8mph /  15.8km/h 98% 0in /  0.0mm
08:43 54.9 °F /  12.7 °C 55.4 °F /  13.0 °C 29.9in /  1013.1hPa SSW 9.8mph /  15.8km/h 9.8mph /  15.8km/h 98% 0in /  0.0mm
08:48 55 °F /  12.8 °C 55.4 °F /  13.0 °C 29.9in /  1013.1hPa SSW 9.8mph /  15.8km/h 9.8mph /  15.8km/h 98% 0in /  0.0mm
09:09 55 °F /  12.8 °C 55.4 °F /  13.0 °C 29.9in /  1013.1hPa SSW 9.8mph /  15.8km/h 9.8mph /  15.8km/h 98% 0in /  0.0mm
09:14 55.2 °F /  12.9 °C 55.4 °F /  13.0 °C 29.9in /  1013.1hPa SSW 9.8mph /  15.8km/h 9.8mph /  15.8km/h 98% 0in /  0.0mm
09:26 32 °F /  0.0 °C 55.4 °F /  13.0 °C 29.9in /  1013.1hPa Calm     0% 0in /  0.0mm
09:31 32 °F /  0.0 °C 55.4 °F /  13.0 °C 29.9in /  1013.1hPa Calm     0% 0in /  0.0mm
09:36 32 °F /  0.0 °C 55.4 °F /  13.0 °C 29.9in /  1013.1hPa Calm     0% 0in /  0.0mm
09:47 32 °F /  0.0 °C 55.4 °F /  13.0 °C 29.9in /  1013.1hPa Calm     0% 0in /  0.0mm
09:52 32 °F /  0.0 °C 55.4 °F /  13.0 °C 29.9in /  1013.1hPa Calm     0% 0in /  0.0mm
09:57 32 °F /  0.0 °C 55.4 °F /  13.0 °C 29.9in /  1013.1hPa Calm     0% 0in /  0.0mm
10:07 32 °F /  0.0 °C 55.4 °F /  13.0 °C 29.9in /  1013.1hPa Calm     0% 0in /  0.0mm
10:22 55.9 °F /  13.3 °C 55.4 °F /  13.0 °C 29.9in /  1013.1hPa Calm     97% 0in /  0.0mm
10:27 55.9 °F /  13.3 °C 55.4 °F /  13.0 °C 29.9in /  1013.1hPa South 13mph /  20.9km/h 19.5mph /  31.4km/h 97% 0in /  0.0mm
10:32 56.1 °F /  13.4 °C 55.4 °F /  13.0 °C 29.9in /  1012.1hPa SSW 13.2mph /  21.2km/h 19.5mph /  31.4km/h 96% 0in /  0.0mm
10:37 56.3 °F /  13.5 °C 55.4 °F /  13.0 °C 29.9in /  1012.1hPa South 12.5mph /  20.1km/h 16.3mph /  26.2km/h 96% 0in /  0.0mm
10:42 56.3 °F /  13.5 °C 55.4 °F /  13.0 °C 29.9in /  1012.1hPa SSW 9.8mph /  15.8km/h 16.3mph /  26.2km/h 96% 0in /  0.0mm
10:47 56.3 °F /  13.5 °C 55.4 °F /  13.0 °C 29.9in /  1013.1hPa SSW 14.8mph /  23.8km/h 23.3mph /  37.5km/h 96% 0in /  0.0mm
10:52 56.3 °F /  13.5 °C 55.4 °F /  13.0 °C 29.9in /  1013.1hPa SW 6.5mph /  10.5km/h 23.3mph /  37.5km/h 96% 0in /  0.0mm
10:57 56.3 °F /  13.5 °C 55.4 °F /  13.0 °C 29.9in /  1013.1hPa SSW 11.9mph /  19.1km/h 17.4mph /  28.0km/h 96% 0in /  0.0mm
11:02 56.8 °F /  13.8 °C 55.4 °F /  13.0 °C 29.9in /  1013.1hPa WSW 13.9mph /  22.4km/h 21.3mph /  34.3km/h 94% 0in /  0.0mm
11:07 56.8 °F /  13.8 °C 55.4 °F /  13.0 °C 29.9in /  1013.1hPa South 11mph /  17.7km/h 21.3mph /  34.3km/h 94% 0in /  0.0mm
11:12 57.6 °F /  14.2 °C 55.4 °F /  13.0 °C 29.9in /  1013.1hPa SSW 12.8mph /  20.6km/h 19.9mph /  32.0km/h 92% 0in /  0.0mm
11:17 57.6 °F /  14.2 °C 55.4 °F /  13.0 °C 29.9in /  1013.1hPa SSW 11mph /  17.7km/h 20.1mph /  32.3km/h 92% 0in /  0.0mm
11:22 58.3 °F /  14.6 °C 55.4 °F /  13.0 °C 29.9in /  1013.1hPa SSW 14.8mph /  23.8km/h 20.1mph /  32.3km/h 91% 0in /  0.0mm
11:27 58.5 °F /  14.7 °C 55.4 °F /  13.0 °C 29.9in /  1013.1hPa SSW 11mph /  17.7km/h 24.4mph /  39.3km/h 90% 0in /  0.0mm
11:32 58.1 °F /  14.5 °C 55.4 °F /  13.0 °C 29.9in /  1013.1hPa SSW 15.4mph /  24.8km/h 24.4mph /  39.3km/h 89% 0in /  0.0mm
11:37 58.1 °F /  14.5 °C 55.4 °F /  13.0 °C 29.9in /  1013.1hPa South 13.2mph /  21.2km/h 23.7mph /  38.1km/h 88% 0in /  0.0mm
11:42 58.5 °F /  14.7 °C 55.4 °F /  13.0 °C 29.9in /  1013.1hPa South 13.2mph /  21.2km/h 23.7mph /  38.1km/h 88% 0in /  0.0mm
11:47 58.5 °F /  14.7 °C 55.4 °F /  13.0 °C 29.9in /  1012.1hPa SSW 24.2mph /  38.9km/h 24.2mph /  38.9km/h 87% 0in /  0.0mm
11:52 58.3 °F /  14.6 °C 55.4 °F /  13.0 °C 29.9in /  1012.1hPa South 19.9mph /  32.0km/h 25.9mph /  41.7km/h 87% 0in /  0.0mm
11:57 58.1 °F /  14.5 °C 55.4 °F /  13.0 °C 29.9in /  1012.1hPa SSW 15.4mph /  24.8km/h 25.9mph /  41.7km/h 88% 0in /  0.0mm
12:02 58.1 °F /  14.5 °C 55.4 °F /  13.0 °C 29.9in /  1012.1hPa SSW 16.3mph /  26.2km/h 25.7mph /  41.4km/h 89% 0in /  0.0mm
12:07 58.1 °F /  14.5 °C 55.4 °F /  13.0 °C 29.9in /  1012.1hPa SSW 10.1mph /  16.3km/h 25.7mph /  41.4km/h 90% 0in /  0.0mm
12:12 58.3 °F /  14.6 °C 55.4 °F /  13.0 °C 29.9in /  1012.1hPa SSW 11.2mph /  18.0km/h 22.8mph /  36.7km/h 90% 0in /  0.0mm
12:17 58.5 °F /  14.7 °C 55.4 °F /  13.0 °C 29.9in /  1011.1hPa SSW 19.7mph /  31.7km/h 26.8mph /  43.1km/h 89% 0in /  0.0mm
12:22 58.3 °F /  14.6 °C 55.4 °F /  13.0 °C 29.9in /  1011.1hPa WSW 23mph /  37.0km/h 26.8mph /  43.1km/h 89% 0in /  0.0mm
12:27 58.5 °F /  14.7 °C 55.4 °F /  13.0 °C 29.9in /  1011.1hPa SSW 14.1mph /  22.7km/h 23mph /  37.0km/h 89% 0in /  0.0mm
12:32 58.6 °F /  14.8 °C 55.4 °F /  13.0 °C 29.8in /  1010.0hPa SW 16.6mph /  26.7km/h 26.2mph /  42.2km/h 87% 0in /  0.0mm
12:38 58.8 °F /  14.9 °C 55.4 °F /  13.0 °C 29.8in /  1010.0hPa SSW 17.7mph /  28.5km/h 26.2mph /  42.2km/h 86% 0in /  0.0mm
12:43 58.8 °F /  14.9 °C 55.4 °F /  13.0 °C 29.8in /  1010.0hPa SSW 15.9mph /  25.6km/h 24.4mph /  39.3km/h 85% 0in /  0.0mm
12:48 58.8 °F /  14.9 °C 55.4 °F /  13.0 °C 29.9in /  1011.1hPa SSW 15.2mph /  24.5km/h 24.2mph /  38.9km/h 84% 0in /  0.0mm
12:53 58.6 °F /  14.8 °C 53.6 °F /  12.0 °C 29.9in /  1011.1hPa SW 24.6mph /  39.6km/h 24.6mph /  39.6km/h 84% 0in /  0.0mm
12:58 58.6 °F /  14.8 °C 53.6 °F /  12.0 °C 29.9in /  1011.1hPa SSW 17.7mph /  28.5km/h 25.1mph /  40.4km/h 83% 0in /  0.0mm
13:03 58.6 °F /  14.8 °C 53.6 °F /  12.0 °C 29.9in /  1011.1hPa SSW 12.5mph /  20.1km/h 25.1mph /  40.4km/h 83% 0in /  0.0mm
13:08 58.6 °F /  14.8 °C 53.6 °F /  12.0 °C 29.9in /  1011.1hPa SSW 17.2mph /  27.7km/h 25.1mph /  40.4km/h 83% 0in /  0.0mm
13:13 58.6 °F /  14.8 °C 53.6 °F /  12.0 °C 29.9in /  1011.1hPa South 22.1mph /  35.6km/h 25.1mph /  40.4km/h 83% 0in /  0.0mm
13:18 58.3 °F /  14.6 °C 53.6 °F /  12.0 °C 29.9in /  1011.1hPa South 20.6mph /  33.1km/h 24.4mph /  39.3km/h 82% 0in /  0.0mm
13:23 58.1 °F /  14.5 °C 53.6 °F /  12.0 °C 29.9in /  1011.1hPa SSW 19.5mph /  31.4km/h 27.3mph /  43.9km/h 81% 0in /  0.0mm
13:28 57.9 °F /  14.4 °C 51.8 °F /  11.0 °C 29.9in /  1011.1hPa WSW 14.8mph /  23.8km/h 29.5mph /  47.5km/h 81% 0in /  0.0mm
13:33 58.1 °F /  14.5 °C 53.6 °F /  12.0 °C 29.9in /  1011.1hPa SSW 23.5mph /  37.8km/h 29.5mph /  47.5km/h 81% 0in /  0.0mm
13:38 58.1 °F /  14.5 °C 53.6 °F /  12.0 °C 29.9in /  1011.1hPa SW 15.4mph /  24.8km/h 25.5mph /  41.0km/h 81% 0in /  0.0mm
13:43 58.1 °F /  14.5 °C 53.6 °F /  12.0 °C 29.9in /  1011.1hPa SSW 15.4mph /  24.8km/h 25.5mph /  41.0km/h 80% 0in /  0.0mm
13:48 58.3 °F /  14.6 °C 51.8 °F /  11.0 °C 29.8in /  1010.0hPa SSW 24.2mph /  38.9km/h 32.2mph /  51.8km/h 78% 0in /  0.0mm
13:53 58.3 °F /  14.6 °C 51.8 °F /  11.0 °C 29.8in /  1010.0hPa SW 23.7mph /  38.1km/h 32.2mph /  51.8km/h 79% 0in /  0.0mm
13:58 58.1 °F /  14.5 °C 51.8 °F /  11.0 °C 29.8in /  1010.0hPa SW 24.6mph /  39.6km/h 26.4mph /  42.5km/h 78% 0in /  0.0mm
14:03 58.1 °F /  14.5 °C 51.8 °F /  11.0 °C 29.8in /  1010.0hPa SSW 26.6mph /  42.8km/h 26.6mph /  42.8km/h 78% 0in /  0.0mm
14:08 57.9 °F /  14.4 °C 51.8 °F /  11.0 °C 29.8in /  1010.0hPa SSW 17.4mph /  28.0km/h 26.6mph /  42.8km/h 79% 0in /  0.0mm
14:13 57.9 °F /  14.4 °C 51.8 °F /  11.0 °C 29.8in /  1010.0hPa SW 17.4mph /  28.0km/h 26.6mph /  42.8km/h 78% 0in /  0.0mm
14:18 57.9 °F /  14.4 °C 51.8 °F /  11.0 °C 29.8in /  1010.0hPa SSW 17mph /  27.4km/h 24.4mph /  39.3km/h 78% 0in /  0.0mm
14:23 57.7 °F /  14.3 °C 51.8 °F /  11.0 °C 29.8in /  1010.0hPa SW 17.4mph /  28.0km/h 24.4mph /  39.3km/h 78% 0in /  0.0mm
14:28 57.6 °F /  14.2 °C 51.8 °F /  11.0 °C 29.8in /  1010.0hPa SSW 16.8mph /  27.0km/h 23.3mph /  37.5km/h 78% 0in /  0.0mm
14:33 57.6 °F /  14.2 °C 51.8 °F /  11.0 °C 29.8in /  1010.0hPa SW 23.9mph /  38.5km/h 23.9mph /  38.5km/h 77% 0in /  0.0mm
14:38 57.6 °F /  14.2 °C 51.8 °F /  11.0 °C 29.8in /  1010.0hPa SW 32.7mph /  52.6km/h 32.7mph /  52.6km/h 77% 0in /  0.0mm
14:43 57.4 °F /  14.1 °C 50 °F /  10.0 °C 29.8in /  1009.0hPa SW 23.5mph /  37.8km/h 32.7mph /  52.6km/h 77% 0in /  0.0mm
14:49 57.4 °F /  14.1 °C 50 °F /  10.0 °C 29.8in /  1009.0hPa SSW 17.7mph /  28.5km/h 23.9mph /  38.5km/h 78% 0in /  0.0mm
14:54 57.4 °F /  14.1 °C 50 °F /  10.0 °C 29.8in /  1009.0hPa South 24.2mph /  38.9km/h 24.2mph /  38.9km/h 78% 0in /  0.0mm
14:59 57.4 °F /  14.1 °C 50 °F /  10.0 °C 29.8in /  1009.0hPa SW 17.9mph /  28.8km/h 24.2mph /  38.9km/h 78% 0in /  0.0mm
15:04 57.6 °F /  14.2 °C 51.8 °F /  11.0 °C 29.8in /  1009.0hPa SSW 14.1mph /  22.7km/h 24.2mph /  38.9km/h 77% 0in /  0.0mm
15:19 57.4 °F /  14.1 °C 50 °F /  10.0 °C 29.8in /  1009.0hPa SSW 15.2mph /  24.5km/h 18.8mph /  30.2km/h 76% 0in /  0.0mm
15:24 57.4 °F /  14.1 °C 50 °F /  10.0 °C 29.8in /  1009.0hPa SSW 13mph /  20.9km/h 18.8mph /  30.2km/h 76% 0in /  0.0mm
15:34 57.2 °F /  14.0 °C 50 °F /  10.0 °C 29.8in /  1009.0hPa SSW 12.8mph /  20.6km/h 23mph /  37.0km/h 75% 0in /  0.0mm
15:39 57.2 °F /  14.0 °C 50 °F /  10.0 °C 29.8in /  1009.0hPa SSW 17.9mph /  28.8km/h 23mph /  37.0km/h 75% 0in /  0.0mm
15:44 57.2 °F /  14.0 °C 50 °F /  10.0 °C 29.8in /  1009.0hPa SW 14.8mph /  23.8km/h 19.9mph /  32.0km/h 75% 0in /  0.0mm
15:49 57.2 °F /  14.0 °C 50 °F /  10.0 °C 29.8in /  1009.0hPa SSW 15.2mph /  24.5km/h 19.9mph /  32.0km/h 75% 0in /  0.0mm
15:54 57.2 °F /  14.0 °C 50 °F /  10.0 °C 29.8in /  1009.0hPa SW 19.2mph /  30.9km/h 20.4mph /  32.8km/h 75% 0in /  0.0mm
15:59 57.2 °F /  14.0 °C 50 °F /  10.0 °C 29.8in /  1009.0hPa WSW 17.4mph /  28.0km/h 20.8mph /  33.5km/h 74% 0in /  0.0mm
16:04 57.2 °F /  14.0 °C 50 °F /  10.0 °C 29.8in /  1009.0hPa SW 14.5mph /  23.3km/h 22.4mph /  36.0km/h 74% 0in /  0.0mm
16:09 57.2 °F /  14.0 °C 50 °F /  10.0 °C 29.8in /  1009.0hPa SW 9.6mph /  15.4km/h 23.5mph /  37.8km/h 74% 0in /  0.0mm
16:19 57.2 °F /  14.0 °C 50 °F /  10.0 °C 29.8in /  1008.0hPa South 10.1mph /  16.3km/h 21.9mph /  35.2km/h 74% 0in /  0.0mm
16:24 57 °F /  13.9 °C 48.2 °F /  9.0 °C 29.8in /  1008.0hPa South 15.4mph /  24.8km/h 19.5mph /  31.4km/h 73% 0in /  0.0mm
16:29 57 °F /  13.9 °C 48.2 °F /  9.0 °C 29.8in /  1008.0hPa SW 17mph /  27.4km/h 22.6mph /  36.4km/h 73% 0in /  0.0mm
16:34 57 °F /  13.9 °C 48.2 °F /  9.0 °C 29.8in /  1009.0hPa SW 10.7mph /  17.2km/h 22.6mph /  36.4km/h 73% 0in /  0.0mm
16:39 56.8 °F /  13.8 °C 48.2 °F /  9.0 °C 29.8in /  1009.0hPa SW 9.8mph /  15.8km/h 22.6mph /  36.4km/h 74% 0in /  0.0mm
16:44 56.8 °F /  13.8 °C 48.2 °F /  9.0 °C 29.8in /  1009.0hPa SSW 10.3mph /  16.6km/h 17.9mph /  28.8km/h 73% 0in /  0.0mm
16:49 56.8 °F /  13.8 °C 48.2 °F /  9.0 °C 29.8in /  1009.0hPa SW 12.3mph /  19.8km/h 17.9mph /  28.8km/h 74% 0in /  0.0mm
16:54 56.7 °F /  13.7 °C 48.2 °F /  9.0 °C 29.8in /  1009.0hPa SSW 17.7mph /  28.5km/h 17.7mph /  28.5km/h 74% 0in /  0.0mm
16:59 56.7 °F /  13.7 °C 48.2 °F /  9.0 °C 29.8in /  1009.0hPa SSW 12.3mph /  19.8km/h 17.7mph /  28.5km/h 74% 0in /  0.0mm
17:04 56.5 °F /  13.6 °C 48.2 °F /  9.0 °C 29.8in /  1009.0hPa SSW 11mph /  17.7km/h 17.7mph /  28.5km/h 74% 0in /  0.0mm
17:09 56.5 °F /  13.6 °C 48.2 °F /  9.0 °C 29.8in /  1009.0hPa SSW 15.2mph /  24.5km/h 15.2mph /  24.5km/h 74% 0in /  0.0mm
17:14 56.3 °F /  13.5 °C 48.2 °F /  9.0 °C 29.8in /  1009.0hPa SSW 11.2mph /  18.0km/h 15.2mph /  24.5km/h 74% 0in /  0.0mm
17:30 56.1 °F /  13.4 °C 48.2 °F /  9.0 °C 29.8in /  1009.0hPa SSW 12.3mph /  19.8km/h 20.1mph /  32.3km/h 75% 0in /  0.0mm
17:35 55.9 °F /  13.3 °C 48.2 °F /  9.0 °C 29.8in /  1009.0hPa SSW 9.8mph /  15.8km/h 17.2mph /  27.7km/h 75% 0in /  0.0mm
17:40 55.9 °F /  13.3 °C 48.2 °F /  9.0 °C 29.8in /  1009.0hPa SSW 8.7mph /  14.0km/h 14.3mph /  23.0km/h 76% 0in /  0.0mm
17:45 55.6 °F /  13.1 °C 48.2 °F /  9.0 °C 29.8in /  1009.0hPa SW 12.8mph /  20.6km/h 17.9mph /  28.8km/h 77% 0in /  0.0mm
17:50 55.6 °F /  13.1 °C 48.2 °F /  9.0 °C 29.8in /  1009.0hPa SSW 10.7mph /  17.2km/h 19.5mph /  31.4km/h 77% 0in /  0.0mm
17:55 55.4 °F /  13.0 °C 48.2 °F /  9.0 °C 29.8in /  1009.0hPa SSW 10.1mph /  16.3km/h 19.5mph /  31.4km/h 77% 0in /  0.0mm
18:00 55.4 °F /  13.0 °C 48.2 °F /  9.0 °C 29.8in /  1008.0hPa South 8.7mph /  14.0km/h 17.9mph /  28.8km/h 77% 0in /  0.0mm
18:05 55.2 °F /  12.9 °C 48.2 °F /  9.0 °C 29.8in /  1008.0hPa South 10.7mph /  17.2km/h 19.9mph /  32.0km/h 78% 0in /  0.0mm
18:10 55.2 °F /  12.9 °C 48.2 °F /  9.0 °C 29.8in /  1008.0hPa SSW 16.8mph /  27.0km/h 19.9mph /  32.0km/h 78% 0in /  0.0mm
18:15 55.2 °F /  12.9 °C 48.2 °F /  9.0 °C 29.8in /  1008.0hPa SSW 10.7mph /  17.2km/h 19.5mph /  31.4km/h 78% 0in /  0.0mm
18:20 55.2 °F /  12.9 °C 48.2 °F /  9.0 °C 29.8in /  1008.0hPa South 14.8mph /  23.8km/h 22.1mph /  35.6km/h 78% 0in /  0.0mm
18:25 55.2 °F /  12.9 °C 48.2 °F /  9.0 °C 29.8in /  1008.0hPa South 15.7mph /  25.3km/h 22.1mph /  35.6km/h 78% 0in /  0.0mm
18:40 55 °F /  12.8 °C 48.2 °F /  9.0 °C 29.8in /  1008.0hPa SSW 17.9mph /  28.8km/h 22.6mph /  36.4km/h 78% 0in /  0.0mm
18:45 55 °F /  12.8 °C 48.2 °F /  9.0 °C 29.7in /  1007.0hPa South 12.8mph /  20.6km/h 22.6mph /  36.4km/h 78% 0in /  0.0mm
18:55 55 °F /  12.8 °C 48.2 °F /  9.0 °C 29.7in /  1007.0hPa SW 12.3mph /  19.8km/h 17.4mph /  28.0km/h 78% 0in /  0.0mm
19:00 55 °F /  12.8 °C 48.2 °F /  9.0 °C 29.8in /  1008.0hPa SW 15.9mph /  25.6km/h 17.7mph /  28.5km/h 78% 0in /  0.0mm
19:11 55 °F /  12.8 °C 48.2 °F /  9.0 °C 29.8in /  1008.0hPa SW 10.5mph /  16.9km/h 22.4mph /  36.0km/h 78% 0in /  0.0mm
19:21 55 °F /  12.8 °C 48.2 °F /  9.0 °C 29.7in /  1007.0hPa SSW 13mph /  20.9km/h 22.1mph /  35.6km/h 78% 0in /  0.0mm
19:30 55 °F /  12.8 °C 48.2 °F /  9.0 °C 29.8in /  1008.0hPa SSE 18.1mph /  29.1km/h 18.8mph /  30.2km/h 78% 0in /  0.0mm
19:36 54.9 °F /  12.7 °C 50 °F /  10.0 °C 29.8in /  1008.0hPa SW 12.3mph /  19.8km/h 18.8mph /  30.2km/h 80% 0in /  0.0mm
19:41 54.5 °F /  12.5 °C 50 °F /  10.0 °C 29.8in /  1008.0hPa SSW 16.8mph /  27.0km/h 17.7mph /  28.5km/h 82% 0in /  0.0mm
19:51 54.5 °F /  12.5 °C 50 °F /  10.0 °C 29.8in /  1008.0hPa SSW 8.9mph /  14.3km/h 19.2mph /  30.9km/h 82% 0in /  0.0mm
19:56 54.5 °F /  12.5 °C 50 °F /  10.0 °C 29.8in /  1008.0hPa SSW 12.3mph /  19.8km/h 20.1mph /  32.3km/h 82% 0in /  0.0mm
20:01 54.7 °F /  12.6 °C 50 °F /  10.0 °C 29.7in /  1007.0hPa SSW 19.9mph /  32.0km/h 21.9mph /  35.2km/h 81% 0in /  0.0mm
20:06 54.9 °F /  12.7 °C 50 °F /  10.0 °C 29.7in /  1007.0hPa SSW 17mph /  27.4km/h 21.9mph /  35.2km/h 80% 0in /  0.0mm
20:11 55 °F /  12.8 °C 50 °F /  10.0 °C 29.7in /  1007.0hPa SSW 17.4mph /  28.0km/h 19.2mph /  30.9km/h 80% 0in /  0.0mm
20:16 54.9 °F /  12.7 °C 50 °F /  10.0 °C 29.8in /  1008.0hPa SW 16.8mph /  27.0km/h 22.6mph /  36.4km/h 81% 0in /  0.0mm
20:21 54.7 °F /  12.6 °C 50 °F /  10.0 °C 29.8in /  1008.0hPa SSW 12.8mph /  20.6km/h 22.6mph /  36.4km/h 81% 0in /  0.0mm
20:26 54.7 °F /  12.6 °C 50 °F /  10.0 °C 29.8in /  1008.0hPa SSW 17.2mph /  27.7km/h 19.5mph /  31.4km/h 81% 0in /  0.0mm
20:31 54.5 °F /  12.5 °C 50 °F /  10.0 °C 29.8in /  1008.0hPa WSW 17.4mph /  28.0km/h 19.2mph /  30.9km/h 83% 0in /  0.0mm
20:36 52 °F /  11.1 °C 46.4 °F /  8.0 °C 29.8in /  1008.0hPa WSW 8.1mph /  13.0km/h 17.7mph /  28.5km/h 81% 0.01in /  0.3mm
20:41 50.2 °F /  10.1 °C 44.6 °F /  7.0 °C 29.8in /  1008.0hPa West 3.1mph /  5.0km/h 17.7mph /  28.5km/h 83% 0.05in /  1.3mm
20:46 49.3 °F /  9.6 °C 46.4 °F /  8.0 °C 29.8in /  1009.0hPa WSW 4.9mph /  7.9km/h 8.1mph /  13.0km/h 85% 0.06in /  1.5mm
20:51 48.7 °F /  9.3 °C 44.6 °F /  7.0 °C 29.8in /  1009.0hPa WNW 7.4mph /  11.9km/h 7.4mph /  11.9km/h 86% 0.07in /  1.8mm
21:01 48 °F /  8.9 °C 46.4 °F /  8.0 °C 29.8in /  1010.0hPa WNW 6.3mph /  10.1km/h 8.7mph /  14.0km/h 91% 0.09in /  2.3mm
21:06 47.7 °F /  8.7 °C 46.4 °F /  8.0 °C 29.8in /  1010.0hPa WNW 8.7mph /  14.0km/h 8.7mph /  14.0km/h 92% 0.1in /  2.5mm
21:11 47.5 °F /  8.6 °C 46.4 °F /  8.0 °C 29.8in /  1010.0hPa WNW 2.2mph /  3.5km/h 8.7mph /  14.0km/h 92% 0.1in /  2.5mm
21:16 47.3 °F /  8.5 °C 46.4 °F /  8.0 °C 29.8in /  1009.0hPa NW 6mph /  9.7km/h 12.5mph /  20.1km/h 94% 0.1in /  2.5mm
21:21 47.3 °F /  8.5 °C 46.4 °F /  8.0 °C 29.8in /  1009.0hPa WSW 2.9mph /  4.7km/h 13.2mph /  21.2km/h 94% 0.11in /  2.8mm
21:31 47.1 °F /  8.4 °C 46.4 °F /  8.0 °C 29.8in /  1010.0hPa Calm   11.2mph /  18.0km/h 95% 0.11in /  2.8mm
21:36 46.9 °F /  8.3 °C 46.4 °F /  8.0 °C 29.8in /  1010.0hPa SSW 4.3mph /  6.9km/h 11.2mph /  18.0km/h 96% 0.1in /  2.5mm
21:41 46.9 °F /  8.3 °C 46.4 °F /  8.0 °C 29.8in /  1010.0hPa West 5.8mph /  9.3km/h 9.6mph /  15.4km/h 96% 0.07in /  1.8mm
21:46 46.9 °F /  8.3 °C 46.4 °F /  8.0 °C 29.8in /  1010.0hPa WSW 5.6mph /  9.0km/h 9.6mph /  15.4km/h 97% 0.06in /  1.5mm
21:51 46.9 °F /  8.3 °C 46.4 °F /  8.0 °C 29.8in /  1010.0hPa West 9.2mph /  14.8km/h 9.2mph /  14.8km/h 97% 0.05in /  1.3mm
21:57 46.9 °F /  8.3 °C 48.2 °F /  9.0 °C 29.8in /  1010.0hPa West 5.6mph /  9.0km/h 9.2mph /  14.8km/h 98% 0.03in /  0.8mm
22:02 46.9 °F /  8.3 °C 48.2 °F /  9.0 °C 29.9in /  1011.1hPa West 5.6mph /  9.0km/h 9.2mph /  14.8km/h 98% 0.03in /  0.8mm
22:07 46.9 °F /  8.3 °C 48.2 °F /  9.0 °C 29.9in /  1011.1hPa WSW 6mph /  9.7km/h 6mph /  9.7km/h 98% 0.02in /  0.5mm
22:12 46.9 °F /  8.3 °C 48.2 °F /  9.0 °C 29.9in /  1011.1hPa WSW 6mph /  9.7km/h 6mph /  9.7km/h 98% 0.02in /  0.5mm
22:17 46.9 °F /  8.3 °C 48.2 °F /  9.0 °C 29.9in /  1011.1hPa WSW 6mph /  9.7km/h 6mph /  9.7km/h 98% 0.02in /  0.5mm
22:22 46.9 °F /  8.3 °C 48.2 °F /  9.0 °C 29.9in /  1011.1hPa WSW 8.7mph /  14.0km/h 8.7mph /  14.0km/h 98% 0.01in /  0.3mm
22:27 46.9 °F /  8.3 °C 48.2 °F /  9.0 °C 29.9in /  1011.1hPa WSW 8.7mph /  14.0km/h 8.7mph /  14.0km/h 98% 0.02in /  0.5mm
22:32 46.9 °F /  8.3 °C 48.2 °F /  9.0 °C 29.8in /  1010.0hPa WSW 8.5mph /  13.7km/h 8.7mph /  14.0km/h 98% 0.02in /  0.5mm
22:37 46.9 °F /  8.3 °C 48.2 °F /  9.0 °C 29.8in /  1010.0hPa WSW 6.9mph /  11.1km/h 12.5mph /  20.1km/h 98% 0.02in /  0.5mm
22:42 46.9 °F /  8.3 °C 48.2 °F /  9.0 °C 29.8in /  1010.0hPa WSW 8.5mph /  13.7km/h 11.4mph /  18.3km/h 98% 0.01in /  0.3mm
22:47 46.9 °F /  8.3 °C 48.2 °F /  9.0 °C 29.9in /  1011.1hPa WSW 12.5mph /  20.1km/h 13.2mph /  21.2km/h 98% 0.01in /  0.3mm
22:52 46.8 °F /  8.2 °C 46.4 °F /  8.0 °C 29.9in /  1011.1hPa WSW 14.1mph /  22.7km/h 14.1mph /  22.7km/h 98% 0.01in /  0.3mm
22:55 46.8 °F /  8.2 °C 46.4 °F /  8.0 °C 29.9in /  1011.1hPa WSW 10.3mph /  16.6km/h 14.1mph /  22.7km/h 98% 0.01in /  0.3mm
23:00 46.8 °F /  8.2 °C 46.4 °F /  8.0 °C 29.9in /  1011.1hPa West 8.1mph /  13.0km/h 14.1mph /  22.7km/h 98% 0.01in /  0.3mm
23:05 46.8 °F /  8.2 °C 46.4 °F /  8.0 °C 29.9in /  1011.1hPa WSW 12.3mph /  19.8km/h 13mph /  20.9km/h 98% 0.01in /  0.3mm
23:10 46.8 °F /  8.2 °C 46.4 °F /  8.0 °C 29.9in /  1011.1hPa WSW 12.8mph /  20.6km/h 15.2mph /  24.5km/h 98% 0.01in /  0.3mm
23:15 46.8 °F /  8.2 °C 46.4 °F /  8.0 °C 29.9in /  1011.1hPa WSW 8.5mph /  13.7km/h 17.7mph /  28.5km/h 98% 0.01in /  0.3mm
23:20 46.6 °F /  8.1 °C 46.4 °F /  8.0 °C 29.9in /  1011.1hPa WSW 8.7mph /  14.0km/h 17.7mph /  28.5km/h 98% 0.01in /  0.3mm
23:25 46.6 °F /  8.1 °C 46.4 °F /  8.0 °C 29.9in /  1011.1hPa WSW 8.5mph /  13.7km/h 13mph /  20.9km/h 98% 0in /  0.0mm
23:31 46.6 °F /  8.1 °C 46.4 °F /  8.0 °C 29.9in /  1011.1hPa West 8.1mph /  13.0km/h 11mph /  17.7km/h 98% 0in /  0.0mm
23:36 46.4 °F /  8.0 °C 46.4 °F /  8.0 °C 29.9in /  1011.1hPa WSW 7.4mph /  11.9km/h 11mph /  17.7km/h 98% 0in /  0.0mm
23:41 46.4 °F /  8.0 °C 46.4 °F /  8.0 °C 29.9in /  1011.1hPa SSW 10.5mph /  16.9km/h 11mph /  17.7km/h 98% 0in /  0.0mm
23:46 46.4 °F /  8.0 °C 46.4 °F /  8.0 °C 29.9in /  1011.1hPa WSW 8.5mph /  13.7km/h 12.1mph /  19.5km/h 98% 0in /  0.0mm
23:51 46.4 °F /  8.0 °C 46.4 °F /  8.0 °C 29.9in /  1011.1hPa SW 8.5mph /  13.7km/h 12.1mph /  19.5km/h 98% 0in /  0.0mm
23:56 46.2 °F /  7.9 °C 46.4 °F /  8.0 °C 29.9in /  1011.1hPa WSW 7.6mph /  12.2km/h 10.5mph /  16.9km/h 98% 0in /  0.0mm
Données Historique de Météo Turbie

Mise a jour : 20/05/2018 16:06:13
Généré par Cumulus 1.9.4 (1099)